Time;durP1;ratioP1;P1;durP2;ratioP2;P2;SDS_P1;SDS_P2;PMS_P1;PMS_P2;Temp;Humidity;BMP_temperature;BMP_pressure;BME280_temperature;BME280_humidity;BME280_pressure;Samples;Min_cycle;Max_cycle;Signal;HPM_P1;HPM_P2
2022/06/12 00:00:58;;;;;;;7.25;5.65;;;;;;;-144.65;100.00;64500.88;5033713;28;20075;-78
2022/06/12 00:03:25;;;;;;;8.30;6.28;;;;;;;-144.65;100.00;64500.88;5040653;28;20041;-77
2022/06/12 00:05:56;;;;;;;8.30;5.85;;;;;;;-144.65;100.00;64500.88;5038349;28;20029;-76
2022/06/12 00:08:22;;;;;;;8.13;5.90;;;;;;;-144.65;100.00;64500.88;5020725;28;20021;-76
2022/06/12 00:10:50;;;;;;;6.40;5.25;;;;;;;-144.65;100.00;64500.88;5043242;28;20031;-77
2022/06/12 00:13:26;;;;;;;8.93;6.20;;;;;;;-144.65;100.00;64500.88;5041748;28;20529;-77
2022/06/12 00:15:52;;;;;;;8.20;5.55;;;;;;;-144.65;100.00;64500.88;5026560;28;20036;-76
2022/06/12 00:18:18;;;;;;;8.65;5.70;;;;;;;-144.65;100.00;64500.88;5023441;28;20049;-77
2022/06/12 00:20:43;;;;;;;7.38;5.80;;;;;;;-144.65;100.00;64500.88;5039440;28;20080;-77
2022/06/12 00:23:12;;;;;;;8.30;5.78;;;;;;;-144.65;100.00;64500.88;5039950;28;20501;-79
2022/06/12 00:25:38;;;;;;;11.50;5.63;;;;;;;-144.65;100.00;64500.88;5038005;28;20087;-76
2022/06/12 00:28:05;;;;;;;7.07;5.70;;;;;;;-144.65;100.00;64500.88;5044274;28;20033;-78
2022/06/12 00:30:31;;;;;;;11.02;5.90;;;;;;;-144.65;100.00;64500.88;5050202;28;20028;-77
2022/06/12 00:32:57;;;;;;;11.30;6.05;;;;;;;-144.65;100.00;64500.88;5050289;28;20025;-77
2022/06/12 00:35:26;;;;;;;10.38;5.85;;;;;;;-144.65;100.00;64500.88;5050342;28;20025;-76
2022/06/12 00:37:52;;;;;;;7.82;6.20;;;;;;;-144.65;100.00;64500.88;5050053;28;20028;-75
2022/06/12 00:40:19;;;;;;;10.68;6.15;;;;;;;-144.65;100.00;64500.88;5032426;28;20032;-77
2022/06/12 00:42:50;;;;;;;8.20;6.07;;;;;;;-144.65;100.00;64500.88;5050103;28;20052;-77
2022/06/12 00:45:33;;;;;;;9.25;5.90;;;;;;;-144.65;100.00;64500.88;5053013;28;20098;-76
2022/06/12 00:48:02;;;;;;;7.10;5.63;;;;;;;-144.65;100.00;64500.88;5054093;28;20039;-76
2022/06/12 00:50:30;;;;;;;10.05;5.25;;;;;;;-144.65;100.00;64500.88;5053786;28;20037;-76
2022/06/12 00:52:57;;;;;;;6.80;5.70;;;;;;;-144.65;100.00;64500.88;5054411;28;20029;-77
2022/06/12 00:55:31;;;;;;;6.53;5.53;;;;;;;-144.65;100.00;64500.88;5035927;28;20036;-76
2022/06/12 00:58:02;;;;;;;10.00;5.78;;;;;;;-144.65;100.00;64500.88;5054048;28;20036;-77
2022/06/12 01:00:28;;;;;;;8.02;5.82;;;;;;;-144.65;100.00;64500.88;5053885;28;20734;-76
2022/06/12 01:02:53;;;;;;;8.15;5.32;;;;;;;-144.65;100.00;64500.88;5052235;28;20033;-75
2022/06/12 01:08:06;;;;;;;8.90;5.72;;;;;;;-144.65;100.00;64500.88;5053744;28;20055;-76
2022/06/12 01:10:34;;;;;;;7.65;6.10;;;;;;;-144.65;100.00;64500.88;5035786;28;20170;-75
2022/06/12 01:13:09;;;;;;;10.48;5.13;;;;;;;-144.65;100.00;64500.88;5053649;28;20032;-75
2022/06/12 01:15:40;;;;;;;8.95;5.95;;;;;;;-144.65;100.00;64500.88;5053576;28;20082;-75
2022/06/12 01:18:09;;;;;;;8.18;6.20;;;;;;;-144.65;100.00;64500.88;5054534;28;20104;-76
2022/06/12 01:20:43;;;;;;;8.15;6.25;;;;;;;-144.65;100.00;64500.88;5056115;28;20037;-76
2022/06/12 01:23:37;;;;;;;6.80;5.30;;;;;;;-144.65;100.00;64500.88;5054393;28;20084;-75
2022/06/12 01:26:37;;;;;;;8.25;5.85;;;;;;;-144.65;100.00;64500.88;5050698;28;20021;-77
2022/06/12 01:29:31;;;;;;;11.80;6.45;;;;;;;-144.65;100.00;64500.88;5023316;28;20037;-76
2022/06/12 01:32:12;;;;;;;8.07;6.00;;;;;;;-144.65;100.00;64500.88;5050712;28;20041;-77
2022/06/12 01:35:05;;;;;;;11.68;6.32;;;;;;;-144.65;100.00;64500.88;5052696;28;20504;-75
2022/06/12 01:37:41;;;;;;;8.23;5.72;;;;;;;-144.65;100.00;64500.88;5051268;28;20033;-78
2022/06/12 01:40:12;;;;;;;7.50;6.07;;;;;;;-144.65;100.00;64500.88;5051607;28;20037;-77
2022/06/12 01:42:50;;;;;;;11.82;6.10;;;;;;;-144.65;100.00;64500.88;5051691;28;20127;-77
2022/06/12 01:45:44;;;;;;;7.63;6.07;;;;;;;-144.65;100.00;64500.88;5051520;28;20494;-78
2022/06/12 01:48:16;;;;;;;8.15;6.25;;;;;;;-144.65;100.00;64500.88;5053007;28;20036;-77
2022/06/12 01:50:50;;;;;;;8.38;6.60;;;;;;;-144.65;100.00;64500.88;5053067;28;20025;-75
2022/06/12 01:53:26;;;;;;;8.73;6.65;;;;;;;-144.65;100.00;64500.88;5053467;28;20490;-77
2022/06/12 01:56:08;;;;;;;6.93;5.85;;;;;;;-144.65;100.00;64500.88;5037039;28;21536;-75
2022/06/12 01:59:00;;;;;;;8.75;6.78;;;;;;;-144.65;100.00;64500.88;5034676;28;20029;-76
2022/06/12 02:01:28;;;;;;;7.47;5.97;;;;;;;-144.65;100.00;64500.88;5040108;28;20025;-76
2022/06/12 02:03:56;;;;;;;7.65;6.45;;;;;;;-144.65;100.00;64500.88;5014390;28;20071;-78
2022/06/12 02:06:31;;;;;;;8.18;6.07;;;;;;;-144.65;100.00;64500.88;5031921;28;20033;-78
2022/06/12 02:09:00;;;;;;;6.97;5.85;;;;;;;-144.65;100.00;64500.88;5032452;28;20014;-77
2022/06/12 02:14:20;;;;;;;7.40;6.20;;;;;;;-144.65;100.00;64500.88;5032866;28;20040;-77
2022/06/12 02:16:51;;;;;;;9.73;5.80;;;;;;;-144.65;100.00;64500.88;5014433;28;20037;-76
2022/06/12 02:19:22;;;;;;;9.02;5.78;;;;;;;-144.65;100.00;64500.88;5044375;28;20029;-76
2022/06/12 02:21:53;;;;;;;8.35;6.30;;;;;;;-144.65;100.00;64500.88;5033394;28;20037;-76
2022/06/12 02:24:27;;;;;;;7.38;6.53;;;;;;;-144.65;100.00;64500.88;5051294;28;20044;-79
2022/06/12 02:27:04;;;;;;;7.47;6.13;;;;;;;-144.65;100.00;64500.88;5033911;28;20027;-76
2022/06/12 02:29:43;;;;;;;7.97;5.82;;;;;;;-144.65;100.00;64500.88;5052023;28;20032;-75
2022/06/12 02:32:18;;;;;;;7.60;5.93;;;;;;;-144.65;100.00;64500.88;5051847;28;20028;-75
2022/06/12 02:34:51;;;;;;;10.27;6.30;;;;;;;-144.65;100.00;64500.88;5034000;28;20052;-76
2022/06/12 02:37:22;;;;;;;9.05;5.53;;;;;;;-144.65;100.00;64500.88;5050504;28;20028;-76
2022/06/12 02:39:57;;;;;;;7.20;5.75;;;;;;;-144.65;100.00;64500.88;5050347;28;20025;-76
2022/06/12 02:42:27;;;;;;;6.88;5.90;;;;;;;-144.65;100.00;64500.88;5051545;28;20486;-75
2022/06/12 02:45:01;;;;;;;9.15;5.85;;;;;;;-144.65;100.00;64500.88;5051600;28;20029;-75
2022/06/12 02:47:31;;;;;;;6.38;5.47;;;;;;;-144.65;100.00;64500.88;5051620;28;20029;-76
2022/06/12 02:49:57;;;;;;;7.28;5.60;;;;;;;-144.65;100.00;64500.88;5051582;28;20051;-75
2022/06/12 02:52:32;;;;;;;6.88;5.70;;;;;;;-144.65;100.00;64500.88;5051802;28;20075;-77
2022/06/12 02:55:18;;;;;;;10.38;6.22;;;;;;;-144.65;100.00;64500.88;5050119;28;20037;-76
2022/06/12 02:58:21;;;;;;;7.55;5.05;;;;;;;-144.65;100.00;64500.88;5050169;28;20033;-75
2022/06/12 03:01:05;;;;;;;9.32;5.47;;;;;;;-144.65;100.00;64500.88;5050076;28;20060;-75
2022/06/12 03:03:51;;;;;;;5.78;4.60;;;;;;;-144.65;100.00;64500.88;5051523;28;20112;-75
2022/06/12 03:06:18;;;;;;;8.23;5.88;;;;;;;-144.65;100.00;64500.88;5050682;28;20113;-76
2022/06/12 03:08:47;;;;;;;7.65;6.03;;;;;;;-144.65;100.00;64500.88;5052333;28;20032;-77
2022/06/12 03:11:33;;;;;;;7.53;5.60;;;;;;;-144.65;100.00;64500.88;5051904;28;20107;-76
2022/06/12 03:13:59;;;;;;;8.10;6.38;;;;;;;-144.65;100.00;64500.88;5051304;28;20017;-74
2022/06/12 03:16:32;;;;;;;9.27;6.45;;;;;;;-144.65;100.00;64500.88;5033480;28;20033;-75
2022/06/12 03:19:05;;;;;;;8.63;6.07;;;;;;;-144.65;100.00;64500.88;5049974;28;20017;-75
2022/06/12 03:21:58;;;;;;;6.95;5.45;;;;;;;-144.65;100.00;64500.88;5051115;28;20072;-76
2022/06/12 03:24:26;;;;;;;10.73;5.72;;;;;;;-144.65;100.00;64500.88;5051311;28;20043;-75
2022/06/12 03:27:03;;;;;;;9.02;5.93;;;;;;;-144.65;100.00;64500.88;5050539;28;20021;-76
2022/06/12 03:29:52;;;;;;;7.35;5.70;;;;;;;-144.65;100.00;64500.88;5048851;28;20029;-79
2022/06/12 03:32:32;;;;;;;8.32;5.82;;;;;;;-144.65;100.00;64500.88;5034355;28;20048;-75
2022/06/12 03:35:11;;;;;;;6.07;5.00;;;;;;;-144.65;100.00;64500.88;5050764;28;20029;-76
2022/06/12 03:37:45;;;;;;;7.47;6.15;;;;;;;-144.65;100.00;64500.88;5049472;28;20040;-76
2022/06/12 03:40:20;;;;;;;6.68;5.25;;;;;;;-144.65;100.00;64500.88;5050590;28;20074;-76
2022/06/12 03:42:56;;;;;;;6.97;5.37;;;;;;;-144.65;100.00;64500.88;5050715;28;20037;-75
2022/06/12 03:45:31;;;;;;;6.82;4.32;;;;;;;-144.65;100.00;64500.88;5032840;28;20028;-76
2022/06/12 03:48:18;;;;;;;;;;;;;;;-144.65;100.00;64500.88;5051189;28;20112;-76
2022/06/12 03:50:58;;;;;;;5.72;4.40;;;;;;;-144.65;100.00;64500.88;5050695;28;19967;-76
2022/06/12 03:53:35;;;;;;;6.32;4.72;;;;;;;-144.65;100.00;64500.88;5051141;28;20079;-75
2022/06/12 03:59:25;;;;;;;6.88;5.05;;;;;;;-144.65;100.00;64500.88;5051243;28;20074;-75
2022/06/12 04:01:51;;;;;;;5.90;5.07;;;;;;;-144.65;100.00;64500.88;5032868;28;20095;-76
2022/06/12 04:04:21;;;;;;;7.20;4.57;;;;;;;-144.65;100.00;64500.88;5050379;28;20028;-77
2022/06/12 04:06:48;;;;;;;9.18;4.95;;;;;;;-144.65;100.00;64500.88;5050448;28;20028;-75
2022/06/12 04:09:18;;;;;;;10.18;5.60;;;;;;;-144.65;100.00;64500.88;5049085;28;20192;-76
2022/06/12 04:11:53;;;;;;;6.35;5.00;;;;;;;-144.65;100.00;64500.88;5032444;28;20501;-76
2022/06/12 04:14:21;;;;;;;8.18;4.90;;;;;;;-144.65;100.00;64500.88;5049498;28;20059;-75
2022/06/12 04:16:51;;;;;;;7.60;4.97;;;;;;;-144.65;100.00;64500.88;5050378;28;20493;-77
2022/06/12 04:19:22;;;;;;;7.85;6.18;;;;;;;-144.65;100.00;64500.88;5054394;28;20070;-77
2022/06/12 04:22:05;;;;;;;8.98;5.70;;;;;;;-144.65;100.00;64500.88;5036542;28;20041;-76
2022/06/12 04:24:48;;;;;;;7.85;6.25;;;;;;;-144.65;100.00;64500.88;5036945;28;20112;-76
2022/06/12 04:27:28;;;;;;;6.78;6.05;;;;;;;-144.65;100.00;64500.88;5054406;28;20480;-75
2022/06/12 04:30:04;;;;;;;6.82;5.15;;;;;;;-144.65;100.00;64500.88;5036611;28;20463;-77
2022/06/12 04:32:30;;;;;;;6.63;5.50;;;;;;;-144.65;100.00;64500.88;5036459;28;20029;-76
2022/06/12 04:34:56;;;;;;;5.95;5.32;;;;;;;-144.65;100.00;64500.88;5054168;28;20033;-76
2022/06/12 04:37:28;;;;;;;7.25;5.78;;;;;;;-144.65;100.00;64500.88;5054355;28;20067;-75
2022/06/12 04:39:58;;;;;;;11.85;6.68;;;;;;;-144.65;100.00;64500.88;5053042;28;20037;-75
2022/06/12 04:42:26;;;;;;;8.52;6.95;;;;;;;-144.65;100.00;64500.88;5036233;28;20021;-77
2022/06/12 04:44:53;;;;;;;9.10;7.00;;;;;;;-144.65;100.00;64500.88;5054146;28;20540;-76
2022/06/12 04:47:23;;;;;;;8.52;6.53;;;;;;;-144.65;100.00;64500.88;5037649;28;20052;-77
2022/06/12 04:49:49;;;;;;;10.20;6.93;;;;;;;-144.65;100.00;64500.88;5033594;28;20029;-75
2022/06/12 04:52:16;;;;;;;10.30;7.13;;;;;;;-144.65;100.00;64500.88;5033720;28;20036;-77
2022/06/12 04:54:44;;;;;;;10.50;6.63;;;;;;;-144.65;100.00;64500.88;5034456;28;20021;-74
2022/06/12 04:57:12;;;;;;;27.15;7.30;;;;;;;-144.65;100.00;64500.88;5039066;28;20026;-85
2022/06/12 04:59:38;;;;;;;10.23;6.43;;;;;;;-144.65;100.00;64500.88;5060100;28;19997;-85
2022/06/12 05:02:05;;;;;;;8.52;6.15;;;;;;;-144.65;100.00;64500.88;5057891;28;20045;-87
2022/06/12 05:04:32;;;;;;;8.18;6.65;;;;;;;-144.65;100.00;64500.88;5040533;28;20032;-85
2022/06/12 05:06:58;;;;;;;8.25;6.15;;;;;;;-144.65;100.00;64500.88;5050764;28;20067;-85
2022/06/12 05:09:27;;;;;;;10.13;6.05;;;;;;;-144.65;100.00;64500.88;5069209;28;20096;-85
2022/06/12 05:11:53;;;;;;;10.48;7.43;;;;;;;-144.65;100.00;64500.88;5072005;28;20088;-87
2022/06/12 05:14:19;;;;;;;9.93;6.22;;;;;;;-144.65;100.00;64500.88;5070153;28;20037;-83
2022/06/12 05:16:50;;;;;;;8.38;6.35;;;;;;;-144.65;100.00;64500.88;5054260;28;20029;-85
2022/06/12 05:19:18;;;;;;;8.60;6.13;;;;;;;-144.65;100.00;64500.88;5066938;28;20057;-84
2022/06/12 05:21:44;;;;;;;32.38;17.67;;;;;;;-144.65;100.00;64500.88;5053724;28;20045;-85
2022/06/12 05:24:10;;;;;;;77.53;45.65;;;;;;;-144.65;100.00;64500.88;5057911;28;20044;-83
2022/06/12 05:26:39;;;;;;;8.45;6.43;;;;;;;-144.65;100.00;64500.88;5076112;28;20088;-85
2022/06/12 05:29:07;;;;;;;9.20;6.43;;;;;;;-144.65;100.00;64500.88;5070405;28;20033;-79
2022/06/12 05:31:33;;;;;;;7.35;5.63;;;;;;;-144.65;100.00;64500.88;5045079;28;20363;-79
2022/06/12 05:33:58;;;;;;;9.27;6.55;;;;;;;-144.65;100.00;64500.88;5032288;28;20032;-83
2022/06/12 05:36:25;;;;;;;7.32;6.47;;;;;;;-144.65;100.00;64500.88;5052059;28;20022;-80
2022/06/12 05:38:52;;;;;;;7.82;6.00;;;;;;;-144.65;100.00;64500.88;5028911;28;20031;-82
2022/06/12 05:41:19;;;;;;;8.60;5.63;;;;;;;-144.65;100.00;64500.88;5052552;28;20039;-84
2022/06/12 05:43:45;;;;;;;7.60;6.15;;;;;;;-144.65;100.00;64500.88;5049417;28;20033;-83
2022/06/12 05:46:13;;;;;;;7.03;5.90;;;;;;;-144.65;100.00;64500.88;5030812;28;20040;-82
2022/06/12 05:48:39;;;;;;;7.75;5.88;;;;;;;-144.65;100.00;64500.88;5038726;28;20036;-83
2022/06/12 05:51:06;;;;;;;7.82;6.45;;;;;;;-144.65;100.00;64500.88;5028690;28;20097;-83
2022/06/12 05:53:33;;;;;;;9.88;6.95;;;;;;;-144.65;100.00;64500.88;5051307;28;20526;-83
2022/06/12 05:55:59;;;;;;;9.85;6.20;;;;;;;-144.65;100.00;64500.88;5041632;28;20026;-83
2022/06/12 05:58:27;;;;;;;8.65;5.40;;;;;;;-144.65;100.00;64500.88;5056062;28;20029;-82
2022/06/12 06:00:53;;;;;;;8.60;6.07;;;;;;;-144.65;100.00;64500.88;5051749;28;20021;-82
2022/06/12 06:03:19;;;;;;;10.07;6.07;;;;;;;-144.65;100.00;64500.88;5064500;28;20059;-85
2022/06/12 06:05:47;;;;;;;8.90;6.03;;;;;;;-144.65;100.00;64500.88;5051508;28;20029;-84
2022/06/12 06:08:13;;;;;;;10.30;6.00;;;;;;;-144.65;100.00;64500.88;5045593;28;20079;-84
2022/06/12 06:10:40;;;;;;;10.73;6.05;;;;;;;-144.65;100.00;64500.88;5060903;28;20029;-83
2022/06/12 06:13:06;;;;;;;9.05;6.10;;;;;;;-144.65;100.00;64500.88;5071495;28;20033;-86
2022/06/12 06:15:31;;;;;;;10.57;5.70;;;;;;;-144.65;100.00;64500.88;5033256;28;20101;-84
2022/06/12 06:17:57;;;;;;;10.30;5.45;;;;;;;-144.65;100.00;64500.88;5051794;28;20025;-81
2022/06/12 06:20:26;;;;;;;10.00;5.53;;;;;;;-144.65;100.00;64500.88;5003910;28;20026;-83
2022/06/12 06:22:52;;;;;;;6.70;5.32;;;;;;;-144.65;100.00;64500.88;5039788;28;20025;-81
2022/06/12 06:25:19;;;;;;;6.38;5.03;;;;;;;-144.65;100.00;64500.88;5038964;28;20103;-82
2022/06/12 06:27:45;;;;;;;7.55;5.20;;;;;;;-144.65;100.00;64500.88;5044708;28;20105;-84
2022/06/12 06:30:12;;;;;;;7.25;5.18;;;;;;;-144.65;100.00;64500.88;5037119;28;20018;-86
2022/06/12 06:32:37;;;;;;;13.65;6.45;;;;;;;-144.65;100.00;64500.88;5038039;28;20048;-85
2022/06/12 06:35:04;;;;;;;12.27;5.80;;;;;;;-144.65;100.00;64500.88;5056324;28;20078;-79
2022/06/12 06:37:31;;;;;;;8.95;5.85;;;;;;;-144.65;100.00;64500.88;5070096;28;20029;-83
2022/06/12 06:39:56;;;;;;;6.75;5.45;;;;;;;-144.65;100.00;64500.88;5077175;28;20021;-84
2022/06/12 06:42:23;;;;;;;6.43;4.57;;;;;;;-144.65;100.00;64500.88;5076252;28;20099;-86
2022/06/12 06:47:33;;;;;;;8.10;5.43;;;;;;;-144.65;100.00;64500.88;5057737;28;20110;-79
2022/06/12 06:49:58;;;;;;;5.78;4.75;;;;;;;-144.65;100.00;64500.88;5051378;28;20507;-79
2022/06/12 06:52:23;;;;;;;8.60;5.40;;;;;;;-144.65;100.00;64500.88;5030239;28;20026;-78
2022/06/12 06:54:49;;;;;;;12.60;5.18;;;;;;;-144.65;100.00;64500.88;5056865;28;20060;-80
2022/06/12 06:57:14;;;;;;;11.68;5.13;;;;;;;-144.65;100.00;64500.88;5040361;28;20063;-78
2022/06/12 06:59:40;;;;;;;9.10;4.90;;;;;;;-144.65;100.00;64500.88;5050968;28;20173;-75
2022/06/12 07:02:07;;;;;;;6.60;4.57;;;;;;;-144.65;100.00;64500.88;5041234;28;20029;-74
2022/06/12 07:04:32;;;;;;;12.07;5.47;;;;;;;-144.65;100.00;64500.88;5031884;28;20020;-77
2022/06/12 07:06:58;;;;;;;5.47;4.63;;;;;;;-144.65;100.00;64500.88;5028537;28;20116;-79
2022/06/12 07:09:25;;;;;;;6.93;4.80;;;;;;;-144.65;100.00;64500.88;5038968;28;20074;-82
2022/06/12 07:11:50;;;;;;;8.35;4.70;;;;;;;-144.65;100.00;64500.88;5013593;28;20028;-83
2022/06/12 07:14:15;;;;;;;5.72;4.55;;;;;;;-144.65;100.00;64500.88;5050702;28;20029;-83
2022/06/12 07:16:42;;;;;;;10.20;4.47;;;;;;;-144.65;100.00;64500.88;5052377;28;20037;-76
2022/06/12 07:19:08;;;;;;;6.20;4.20;;;;;;;-144.65;100.00;64500.88;5043370;28;20021;-80
2022/06/12 07:21:35;;;;;;;5.47;4.20;;;;;;;-144.65;100.00;64500.88;5042238;28;20080;-81
2022/06/12 07:24:01;;;;;;;6.30;4.22;;;;;;;-144.65;100.00;64500.88;5052442;28;20041;-76
2022/06/12 07:26:40;;;;;;;7.95;4.85;;;;;;;-144.65;100.00;64500.88;5048418;28;20666;-75
2022/06/12 07:29:06;;;;;;;5.05;4.03;;;;;;;-144.65;100.00;64500.88;5048241;28;20064;-77
2022/06/12 07:31:31;;;;;;;10.23;7.90;;;;;;;-144.65;100.00;64500.88;5036349;28;20034;-79
2022/06/12 07:33:57;;;;;;;6.20;4.80;;;;;;;-144.65;100.00;64500.88;5046007;28;20025;-77
2022/06/12 07:36:23;;;;;;;6.75;4.15;;;;;;;-144.65;100.00;64500.88;5032091;28;20082;-75
2022/06/12 07:38:49;;;;;;;7.20;5.47;;;;;;;-144.65;100.00;64500.88;5031917;28;20032;-78
2022/06/12 07:41:16;;;;;;;5.75;4.55;;;;;;;-144.65;100.00;64500.88;5032821;28;20033;-75
2022/06/12 07:43:43;;;;;;;5.63;4.63;;;;;;;-144.65;100.00;64500.88;5035320;28;20060;-84
2022/06/12 07:46:11;;;;;;;5.45;4.35;;;;;;;-144.65;100.00;64500.88;5029981;28;20031;-79
2022/06/12 07:48:38;;;;;;;6.00;4.60;;;;;;;-144.65;100.00;64500.88;5031411;28;20032;-77
2022/06/12 07:51:19;;;;;;;5.68;4.32;;;;;;;-144.65;100.00;64500.88;5050804;28;20021;-80
2022/06/12 07:53:47;;;;;;;6.20;3.85;;;;;;;-144.65;100.00;64500.88;5035588;28;20028;-75
2022/06/12 07:56:13;;;;;;;5.63;4.30;;;;;;;-144.65;100.00;64500.88;5043532;28;20529;-76
2022/06/12 07:58:40;;;;;;;6.97;4.10;;;;;;;-144.65;100.00;64500.88;5023424;28;20024;-79
2022/06/12 08:01:08;;;;;;;5.97;4.25;;;;;;;-144.65;100.00;64500.88;5029006;28;20116;-84
2022/06/12 08:03:34;;;;;;;8.40;4.60;;;;;;;-144.65;100.00;64500.88;5022241;28;20029;-77
2022/06/12 08:06:00;;;;;;;7.53;3.78;;;;;;;-144.65;100.00;64500.88;5019303;28;20029;-80
2022/06/12 08:08:26;;;;;;;6.78;3.97;;;;;;;-144.65;100.00;64500.88;5056150;28;20401;-79
2022/06/12 08:10:52;;;;;;;4.65;3.88;;;;;;;-144.65;100.00;64500.88;5039981;28;20367;-79
2022/06/12 08:13:19;;;;;;;9.75;4.00;;;;;;;-144.65;100.00;64500.88;5037934;28;20155;-79
2022/06/12 08:15:47;;;;;;;4.70;4.20;;;;;;;-144.65;100.00;64500.88;5021354;28;20062;-79
2022/06/12 08:18:15;;;;;;;5.45;3.67;;;;;;;-144.65;100.00;64500.88;5042107;28;20497;-79
2022/06/12 08:20:45;;;;;;;4.65;3.30;;;;;;;-144.65;100.00;64500.88;5021842;28;20041;-79
2022/06/12 08:23:29;;;;;;;5.07;3.67;;;;;;;-144.65;100.00;64500.88;5015503;28;20498;-80
2022/06/12 08:26:07;;;;;;;5.10;3.63;;;;;;;-144.65;100.00;64500.88;5021937;28;20033;-77
2022/06/12 08:28:36;;;;;;;5.38;3.28;;;;;;;-144.65;100.00;64500.88;5038945;28;20034;-82
2022/06/12 08:31:05;;;;;;;5.43;3.38;;;;;;;-144.65;100.00;64500.88;5048143;28;20038;-77
2022/06/12 08:33:32;;;;;;;4.05;3.30;;;;;;;-144.65;100.00;64500.88;5044201;28;20059;-78
2022/06/12 08:36:01;;;;;;;4.07;3.13;;;;;;;-144.65;100.00;64500.88;5025980;28;20047;-81
2022/06/12 08:38:27;;;;;;;5.55;2.63;;;;;;;-144.65;100.00;64500.88;5045391;28;20021;-81
2022/06/12 08:40:56;;;;;;;7.03;3.30;;;;;;;-144.65;100.00;64500.88;5022352;28;20025;-78
2022/06/12 08:43:38;;;;;;;4.55;3.08;;;;;;;-144.65;100.00;64500.88;5021772;28;20771;-79
2022/06/12 08:46:13;;;;;;;4.40;2.83;;;;;;;-144.65;100.00;64500.88;5015725;28;20064;-76
2022/06/12 08:48:57;;;;;;;;;;;;;;;-144.65;100.00;64500.88;5041892;28;20021;-74
2022/06/12 08:51:39;;;;;;;5.10;2.75;;;;;;;-144.65;100.00;64500.88;5052294;28;19975;-76
2022/06/12 08:54:12;;;;;;;6.80;3.45;;;;;;;-144.65;100.00;64500.88;5036497;28;20123;-78
2022/06/12 08:56:52;;;;;;;7.13;3.10;;;;;;;-144.65;100.00;64500.88;5050235;28;20029;-76
2022/06/12 08:59:27;;;;;;;3.67;2.95;;;;;;;-144.65;100.00;64500.88;5050140;28;20033;-76
2022/06/12 09:01:53;;;;;;;3.65;2.83;;;;;;;-144.65;100.00;64500.88;5035388;28;20084;-76
2022/06/12 09:04:23;;;;;;;4.10;3.13;;;;;;;-144.65;100.00;64500.88;5048820;28;20086;-75
2022/06/12 09:06:48;;;;;;;5.13;3.25;;;;;;;-144.65;100.00;64500.88;5054724;28;20031;-80
2022/06/12 09:09:19;;;;;;;5.07;3.10;;;;;;;-144.65;100.00;64500.88;5056850;28;20103;-74
2022/06/12 09:12:01;;;;;;;4.85;2.90;;;;;;;-144.65;100.00;64500.88;5053805;28;20136;-80
2022/06/12 09:14:59;;;;;;;3.65;2.50;;;;;;;-144.65;100.00;64500.88;5052619;28;20036;-74
2022/06/12 09:17:48;;;;;;;3.58;2.33;;;;;;;-144.65;100.00;64500.88;5052269;28;20482;-74
2022/06/12 09:20:28;;;;;;;4.07;2.47;;;;;;;-144.65;100.00;64500.88;5051555;28;20155;-79
2022/06/12 09:23:21;;;;;;;7.20;2.65;;;;;;;-144.65;100.00;64500.88;5078673;28;20106;-86
2022/06/12 09:25:59;;;;;;;5.03;2.40;;;;;;;-144.65;100.00;64500.88;5053430;28;20505;-81
2022/06/12 09:28:52;;;;;;;3.50;2.83;;;;;;;-144.65;100.00;64500.88;5047529;28;20040;-82
2022/06/12 09:31:30;;;;;;;3.97;2.38;;;;;;;-144.65;100.00;64500.88;5052198;28;20045;-76
2022/06/12 09:34:12;;;;;;;3.97;2.50;;;;;;;-144.65;100.00;64500.88;5052511;28;20036;-75
2022/06/12 09:36:43;;;;;;;4.72;2.28;;;;;;;-144.65;100.00;64500.88;5050406;28;20021;-84
2022/06/12 09:39:31;;;;;;;4.35;2.33;;;;;;;-144.65;100.00;64500.88;5079061;28;20025;-77
2022/06/12 09:42:09;;;;;;;3.75;2.30;;;;;;;-144.65;100.00;64500.88;5074531;28;20021;-82
2022/06/12 09:45:10;;;;;;;3.72;2.60;;;;;;;-144.65;100.00;64500.88;5033472;28;20036;-79
2022/06/12 09:47:58;;;;;;;4.47;2.08;;;;;;;-144.65;100.00;64500.88;5017111;28;20457;-74
2022/06/12 09:50:45;;;;;;;3.53;2.50;;;;;;;-144.65;100.00;64500.88;5015201;28;20113;-74
2022/06/12 09:53:37;;;;;;;3.50;2.35;;;;;;;-144.65;100.00;64500.88;5033157;28;20038;-78
2022/06/12 09:56:50;;;;;;;2.97;2.35;;;;;;;-144.65;100.00;64500.88;5040135;28;20127;-78
2022/06/12 09:59:28;;;;;;;4.07;2.40;;;;;;;-144.65;100.00;64500.88;5035495;28;20032;-74
2022/06/12 10:01:57;;;;;;;3.28;2.03;;;;;;;-144.65;100.00;64500.88;5052296;28;20033;-74
2022/06/12 10:04:49;;;;;;;3.30;2.38;;;;;;;-144.65;100.00;64500.88;5053209;28;20108;-79
2022/06/12 10:08:22;;;;;;;2.92;2.00;;;;;;;-144.65;100.00;64500.88;5056022;28;20072;-75
2022/06/12 10:10:57;;;;;;;2.60;2.10;;;;;;;-144.65;100.00;64500.88;4996909;28;20042;-78
2022/06/12 10:13:34;;;;;;;4.35;2.20;;;;;;;-144.65;100.00;64500.88;5043444;28;20037;-76
2022/06/12 10:16:05;;;;;;;3.13;2.10;;;;;;;-144.65;100.00;64500.88;5045701;28;20037;-76
2022/06/12 10:18:49;;;;;;;5.18;2.10;;;;;;;-144.65;100.00;64500.88;5042770;28;20023;-76
2022/06/12 10:21:20;;;;;;;4.28;2.30;;;;;;;-144.65;100.00;64500.88;5040485;28;20049;-75
2022/06/12 10:23:46;;;;;;;4.20;2.22;;;;;;;-144.65;100.00;64500.88;5040582;28;20063;-77
2022/06/12 10:26:18;;;;;;;3.88;2.30;;;;;;;-144.65;100.00;64500.88;5050423;28;20056;-81
2022/06/12 10:28:45;;;;;;;3.05;2.17;;;;;;;-144.65;100.00;64500.88;5034955;28;20474;-74
2022/06/12 10:31:10;;;;;;;4.13;2.45;;;;;;;-144.65;100.00;64500.88;5017731;28;20013;-75
2022/06/12 10:33:41;;;;;;;3.45;2.20;;;;;;;-144.65;100.00;64500.88;5036915;28;20105;-74
2022/06/12 10:36:39;;;;;;;3.40;2.25;;;;;;;-144.65;100.00;64500.88;5032580;28;20025;-74
2022/06/12 10:39:22;;;;;;;3.20;2.30;;;;;;;-144.65;100.00;64500.88;5018048;28;20065;-74
2022/06/12 10:41:50;;;;;;;3.78;2.40;;;;;;;-144.65;100.00;64500.88;5034178;28;20033;-75
2022/06/12 10:44:42;;;;;;;3.33;2.30;;;;;;;-144.65;100.00;64500.88;5050712;28;20047;-74
2022/06/12 10:47:09;;;;;;;2.65;2.13;;;;;;;-144.65;100.00;64500.88;5028404;28;20508;-73
2022/06/12 10:49:34;;;;;;;4.47;2.30;;;;;;;-144.65;100.00;64500.88;5033503;28;20032;-74
2022/06/12 10:52:07;;;;;;;3.22;2.42;;;;;;;-144.65;100.00;64500.88;5029803;28;20037;-73
2022/06/12 10:54:33;;;;;;;3.53;2.28;;;;;;;-144.65;100.00;64500.88;5029684;28;20550;-74
2022/06/12 10:57:31;;;;;;;4.55;2.50;;;;;;;-144.65;100.00;64500.88;5014375;28;20033;-75
2022/06/12 11:00:14;;;;;;;4.18;2.53;;;;;;;-144.65;100.00;64500.88;5027820;28;20030;-74
2022/06/12 11:03:14;;;;;;;3.55;2.13;;;;;;;-144.65;100.00;64500.88;5029987;28;20525;-74
2022/06/12 11:06:07;;;;;;;3.38;2.42;;;;;;;-144.65;100.00;64500.88;5030755;28;20072;-74
2022/06/12 11:08:35;;;;;;;2.90;2.22;;;;;;;-144.65;100.00;64500.88;5024831;28;20091;-75
2022/06/12 11:11:18;;;;;;;3.45;2.42;;;;;;;-144.65;100.00;64500.88;5033311;28;20080;-73
2022/06/12 11:13:52;;;;;;;4.07;2.45;;;;;;;-144.65;100.00;64500.88;5028438;28;20113;-74
2022/06/12 11:16:32;;;;;;;2.80;2.40;;;;;;;-144.65;100.00;64500.88;5045601;28;20033;-75
2022/06/12 11:19:24;;;;;;;3.47;2.00;;;;;;;-144.65;100.00;64500.88;5046851;28;20021;-74
2022/06/12 11:22:34;;;;;;;4.68;2.38;;;;;;;-144.65;100.00;64500.88;5047843;28;20120;-74
2022/06/12 11:25:26;;;;;;;3.83;2.50;;;;;;;-144.65;100.00;64500.88;5020176;28;20465;-73
2022/06/12 11:28:00;;;;;;;2.88;2.22;;;;;;;-144.65;100.00;64500.88;5028994;28;20071;-74
2022/06/12 11:30:39;;;;;;;3.60;2.35;;;;;;;-144.65;100.00;64500.88;5037197;28;20536;-75
2022/06/12 11:33:04;;;;;;;3.88;3.05;;;;;;;-144.65;100.00;64500.88;5020356;28;20060;-73
2022/06/12 11:35:54;;;;;;;4.90;3.65;;;;;;;-144.65;100.00;64500.88;5029280;28;20147;-73
2022/06/12 11:38:30;;;;;;;9.27;6.18;;;;;;;-144.65;100.00;64500.88;5029976;28;20086;-75
2022/06/12 11:41:08;;;;;;;6.40;2.90;;;;;;;-144.65;100.00;64500.88;5029787;28;20094;-73
2022/06/12 11:43:47;;;;;;;3.30;2.15;;;;;;;-144.65;100.00;64500.88;5018643;28;20037;-75
2022/06/12 11:46:24;;;;;;;3.42;2.40;;;;;;;-144.65;100.00;64500.88;5030210;28;20033;-74
2022/06/12 11:49:24;;;;;;;3.15;2.42;;;;;;;-144.65;100.00;64500.88;5042484;28;20038;-75